CCZ weather

Chub Cay Airport
Nicholls Town and Berry Islands, Bahamas

Public forecast

Using degrees Celsius for public forecast. Weather courtesy of forecast.io.

Closest aviation weather report (METAR) to Chub Cay Airport

Closest report is Lynden Pindling International Airport, 32.0 nm (59.2 km) SE. Retrieved 2020/07/05 11:00 UTC (4 minutes ago):

MYNN 051100Z VRB02KT 9999 VCTS FEW018CB BKN200 27/24 A2999 CB/LTG W

Closest aviation forecast (TAF) to Chub Cay Airport

Closest forecast is Lynden Pindling International Airport, 32.0 nm (59.2 km) SE. Retrieved 2020/07/05 06:21 UTC (5 hours ago):

TAF MYNN 050430Z 0506/0606 17003KT CAVOK FM051200 18005G15KT 8000 SHRA FEW016CB SCT018 BKN035